createdAt,value
2022-09-12T00:00:46.826Z,97384.63
2022-09-12T00:03:32.300Z,97381.41
2022-09-12T00:06:23.807Z,97386.72
2022-09-12T00:09:14.133Z,97374.38
2022-09-12T00:11:59.671Z,97374.59
2022-09-12T00:14:44.908Z,97372.69
2022-09-12T00:17:30.191Z,97368.09
2022-09-12T00:20:15.472Z,97372.56
2022-09-12T00:23:00.948Z,97373.66
2022-09-12T00:25:48.296Z,97369.38
2022-09-12T00:28:36.210Z,97367.44
2022-09-12T00:31:25.004Z,97373.53
2022-09-12T00:34:10.513Z,97365.19
2022-09-12T00:36:55.795Z,97371.25
2022-09-12T00:39:41.399Z,97372.25
2022-09-12T00:42:26.670Z,97379.94
2022-09-12T00:45:23.535Z,97378.00
2022-09-12T00:48:21.746Z,97373.16
2022-09-12T00:51:07.612Z,97364.88
2022-09-12T00:53:55.426Z,97360.59
2022-09-12T00:56:43.972Z,97362.16
2022-09-12T00:59:38.609Z,97364.44
2022-09-12T01:02:24.886Z,97366.22
2022-09-12T01:05:10.455Z,97357.13
2022-09-12T01:07:57.035Z,97354.63
2022-09-12T01:10:42.809Z,97358.28
2022-09-12T01:13:29.072Z,97350.50
2022-09-12T01:16:14.942Z,97355.50
2022-09-12T01:19:35.399Z,97356.50
2022-09-12T01:22:51.544Z,97351.66
2022-09-12T01:25:40.187Z,97343.28
2022-09-12T01:28:47.878Z,97342.63
2022-09-12T01:31:41.301Z,97329.28
2022-09-12T01:34:34.385Z,97339.03
2022-09-12T01:37:41.832Z,97334.09
2022-09-12T01:40:40.740Z,97340.66
2022-09-12T01:43:37.833Z,97338.66
2022-09-12T01:46:51.054Z,97340.97
2022-09-12T01:50:01.743Z,97349.22
2022-09-12T01:52:53.503Z,97341.94
2022-09-12T01:55:48.339Z,97345.34
2022-09-12T01:58:41.833Z,97339.94
2022-09-12T02:01:33.244Z,97345.16
2022-09-12T02:04:23.177Z,97346.34
2022-09-12T02:07:16.783Z,97337.47
2022-09-12T02:10:22.503Z,97331.03
2022-09-12T02:13:15.799Z,97337.84
2022-09-12T02:16:16.015Z,97332.94
2022-09-12T02:19:11.298Z,97333.09
2022-09-12T02:22:00.106Z,97339.94
2022-09-12T02:24:49.753Z,97338.06
2022-09-12T02:27:44.646Z,97337.50
2022-09-12T02:30:56.382Z,97332.09
2022-09-12T02:33:49.232Z,97327.28
2022-09-12T02:36:59.823Z,97319.75
2022-09-12T02:39:45.701Z,97328.22
2022-09-12T02:42:31.339Z,97323.94
2022-09-12T02:45:17.957Z,97328.22
2022-09-12T02:48:13.307Z,97325.56
2022-09-12T02:50:59.136Z,97330.63
2022-09-12T02:53:44.776Z,97326.13
2022-09-12T02:56:31.066Z,97329.59
2022-09-12T02:59:19.562Z,97331.75
2022-09-12T03:02:20.097Z,97333.38
2022-09-12T03:05:27.168Z,97331.75
2022-09-12T03:08:15.902Z,97331.09
2022-09-12T03:11:04.520Z,97329.25
2022-09-12T03:13:57.337Z,97333.53
2022-09-12T03:17:09.303Z,97327.41
2022-09-12T03:19:57.914Z,97330.63
2022-09-12T03:22:52.154Z,97328.31
2022-09-12T03:26:09.536Z,97323.53
2022-09-12T03:28:57.563Z,97326.19
2022-09-12T03:31:57.899Z,97323.00
2022-09-12T03:34:43.240Z,97323.53
2022-09-12T03:37:28.498Z,97326.31
2022-09-12T03:40:15.648Z,97320.19
2022-09-12T03:43:00.777Z,97308.75
2022-09-12T03:45:50.577Z,97313.56
2022-09-12T03:48:36.326Z,97309.88
2022-09-12T03:51:22.406Z,97315.53
2022-09-12T03:54:07.761Z,97315.28
2022-09-12T03:56:53.168Z,97316.34
2022-09-12T03:59:38.538Z,97312.06
2022-09-12T04:02:24.060Z,97318.44
2022-09-12T04:05:09.173Z,97322.13
2022-09-12T04:07:54.725Z,97321.53
2022-09-12T04:10:40.437Z,97328.72
2022-09-12T04:13:25.668Z,97336.13
2022-09-12T04:16:12.172Z,97329.19
2022-09-12T04:18:57.442Z,97332.09
2022-09-12T04:21:42.840Z,97326.69
2022-09-12T04:24:28.308Z,97329.81
2022-09-12T04:27:13.535Z,97329.00
2022-09-12T04:30:01.266Z,97330.63
2022-09-12T04:32:46.718Z,97327.41
2022-09-12T04:35:32.325Z,97322.91
2022-09-12T04:38:17.689Z,97320.72
2022-09-12T04:41:13.432Z,97329.16
2022-09-12T04:44:03.490Z,97330.56
2022-09-12T04:46:49.138Z,97334.63
2022-09-12T04:49:34.543Z,97329.56
2022-09-12T04:52:20.055Z,97333.25
2022-09-12T04:55:05.859Z,97335.72
2022-09-12T04:57:51.251Z,97338.91
2022-09-12T05:00:36.377Z,97337.09
2022-09-12T05:03:21.976Z,97335.22
2022-09-12T05:06:10.208Z,97339.94
2022-09-12T05:08:56.632Z,97339.41
2022-09-12T05:12:03.670Z,97338.34
2022-09-12T05:14:49.738Z,97346.88
2022-09-12T05:17:35.284Z,97343.44
2022-09-12T05:20:21.062Z,97344.47
2022-09-12T05:23:06.563Z,97345.03
2022-09-12T05:25:53.000Z,97351.63
2022-09-12T05:28:39.135Z,97347.91
2022-09-12T05:31:26.561Z,97348.75
2022-09-12T05:34:12.772Z,97349.53
2022-09-12T05:36:58.552Z,97347.78
2022-09-12T05:39:44.245Z,97365.69
2022-09-12T05:42:30.001Z,97365.19
2022-09-12T05:45:15.616Z,97361.84
2022-09-12T05:48:02.959Z,97360.09
2022-09-12T05:50:48.477Z,97367.34
2022-09-12T05:53:34.721Z,97363.41
2022-09-12T05:56:25.879Z,97369.28
2022-09-12T05:59:15.163Z,97370.91
2022-09-12T06:02:00.510Z,97369.53
2022-09-12T06:04:46.515Z,97367.47
2022-09-12T06:07:32.909Z,97367.78
2022-09-12T06:10:18.632Z,97361.53
2022-09-12T06:13:04.363Z,97372.00
2022-09-12T06:15:50.275Z,97364.94
2022-09-12T06:18:37.166Z,97361.53
2022-09-12T06:21:23.553Z,97362.44
2022-09-12T06:24:08.917Z,97364.72
2022-09-12T06:26:54.791Z,97371.97
2022-09-12T06:29:40.339Z,97363.75
2022-09-12T06:32:25.924Z,97357.41
2022-09-12T06:35:12.180Z,97366.59
2022-09-12T06:37:57.816Z,97361.94
2022-09-12T06:40:44.653Z,97370.31
2022-09-12T06:43:30.885Z,97373.22
2022-09-12T06:46:16.258Z,97374.59
2022-09-12T06:49:01.912Z,97372.84
2022-09-12T06:51:48.340Z,97367.13
2022-09-12T06:54:34.107Z,97362.19
2022-09-12T06:57:19.310Z,97371.91
2022-09-12T07:00:05.882Z,97368.59
2022-09-12T07:02:56.681Z,97373.91
2022-09-12T07:05:42.718Z,97368.38
2022-09-12T07:08:31.707Z,97367.06
2022-09-12T07:11:23.841Z,97373.16
2022-09-12T07:14:13.219Z,97368.16
2022-09-12T07:16:59.033Z,97374.16
2022-09-12T07:19:44.386Z,97371.88
2022-09-12T07:22:29.704Z,97373.53
2022-09-12T07:25:15.168Z,97374.13
2022-09-12T07:28:00.822Z,97371.81
2022-09-12T07:30:46.439Z,97362.91
2022-09-12T07:33:32.630Z,97365.94
2022-09-12T07:36:20.753Z,97363.06
2022-09-12T07:39:06.420Z,97363.13
2022-09-12T07:41:51.755Z,97362.13
2022-09-12T07:44:37.312Z,97366.13
2022-09-12T07:47:22.586Z,97365.88
2022-09-12T07:50:08.326Z,97364.63
2022-09-12T07:52:55.314Z,97361.19
2022-09-12T07:55:41.276Z,97367.09
2022-09-12T07:58:26.921Z,97360.44
2022-09-12T08:01:13.373Z,97356.22
2022-09-12T08:04:00.023Z,97353.59
2022-09-12T08:06:45.653Z,97367.53
2022-09-12T08:09:31.099Z,97362.22
2022-09-12T08:12:17.885Z,97357.44
2022-09-12T08:15:03.698Z,97368.69
2022-09-12T08:17:49.147Z,97369.84
2022-09-12T08:20:34.320Z,97372.28
2022-09-12T08:23:21.970Z,97376.59
2022-09-12T08:26:07.502Z,97374.00
2022-09-12T08:28:53.900Z,97377.47
2022-09-12T08:31:41.333Z,97366.34
2022-09-12T08:34:27.129Z,97376.84
2022-09-12T08:37:12.304Z,97374.41
2022-09-12T08:39:58.056Z,97373.41
2022-09-12T08:48:28.930Z,97378.91
2022-09-12T08:51:19.376Z,97373.31
2022-09-12T08:54:19.046Z,97381.13
2022-09-12T08:57:06.904Z,97373.38
2022-09-12T08:59:53.186Z,97367.00
2022-09-12T09:03:10.106Z,97367.81
2022-09-12T09:06:01.767Z,97365.16
2022-09-12T09:09:23.822Z,97369.44
2022-09-12T09:12:15.722Z,97366.00
2022-09-12T09:15:24.868Z,97369.47
2022-09-12T09:18:31.871Z,97370.56
2022-09-12T09:21:23.818Z,97367.41
2022-09-12T09:24:14.794Z,97362.59
2022-09-12T09:27:41.637Z,97354.03
2022-09-12T09:30:28.954Z,97352.69
2022-09-12T09:33:27.898Z,97357.25
2022-09-12T09:36:35.179Z,97351.63
2022-09-12T09:39:56.192Z,97348.13
2022-09-12T09:43:03.180Z,97345.16
2022-09-12T09:45:50.125Z,97349.69
2022-09-12T09:48:38.101Z,97336.25
2022-09-12T09:51:30.017Z,97345.63
2022-09-12T09:54:25.731Z,97339.19
2022-09-12T09:57:36.337Z,97332.47
2022-09-12T10:00:32.403Z,97335.69
2022-09-12T10:03:26.795Z,97337.28
2022-09-12T10:06:36.087Z,97334.56
2022-09-12T10:09:25.906Z,97332.94
2022-09-12T10:12:28.537Z,97328.09
2022-09-12T10:15:29.553Z,97329.38
2022-09-12T10:18:34.336Z,97329.84
2022-09-12T10:21:33.507Z,97323.38
2022-09-12T10:24:25.854Z,97314.47
2022-09-12T10:27:20.251Z,97323.78
2022-09-12T10:30:14.773Z,97326.97
2022-09-12T10:33:11.047Z,97317.31
2022-09-12T10:35:57.286Z,97326.16
2022-09-12T10:38:51.065Z,97319.72
2022-09-12T10:41:39.937Z,97312.25
2022-09-12T10:44:28.651Z,97320.56
2022-09-12T10:56:22.775Z,97307.19
2022-09-12T11:00:15.085Z,97311.25
2022-09-12T11:03:27.324Z,97303.50
2022-09-12T11:07:16.540Z,97305.66
2022-09-12T11:15:30.871Z,97299.19
2022-09-12T11:18:27.457Z,97309.88
2022-09-12T11:21:46.836Z,97313.00
2022-09-12T11:24:48.974Z,97303.22
2022-09-12T11:27:48.125Z,97299.63
2022-09-12T11:31:04.855Z,97298.63
2022-09-12T11:34:58.311Z,97291.69
2022-09-12T11:48:17.480Z,97291.09
2022-09-12T12:00:56.150Z,97291.91
2022-09-12T12:03:55.609Z,97279.66
2022-09-12T12:06:54.041Z,97280.34
2022-09-12T12:09:52.993Z,97283.53
2022-09-12T12:27:44.323Z,97270.44
2022-09-12T12:44:33.583Z,97252.31
2022-09-12T12:48:08.118Z,97260.19
2022-09-12T12:50:53.926Z,97252.91
2022-09-12T12:53:42.032Z,97247.81
2022-09-12T13:01:23.260Z,97239.41
2022-09-12T13:04:46.454Z,97234.72
2022-09-12T13:07:36.999Z,97229.53
2022-09-12T13:10:27.131Z,97234.63
2022-09-12T13:13:25.491Z,97230.66
2022-09-12T13:16:11.467Z,97232.47
2022-09-12T13:23:03.892Z,97229.13
2022-09-12T13:26:24.203Z,97225.56
2022-09-12T13:29:17.414Z,97217.66
2022-09-12T13:32:03.517Z,97211.16
2022-09-12T13:35:52.139Z,97213.16
2022-09-12T13:42:42.839Z,97210.75
2022-09-12T13:45:28.497Z,97204.06
2022-09-12T13:48:18.366Z,97198.47
2022-09-12T13:51:05.927Z,97201.47
2022-09-12T13:53:53.152Z,97195.78
2022-09-12T13:56:47.722Z,97198.56
2022-09-12T14:00:06.233Z,97192.09
2022-09-12T14:03:14.374Z,97189.09
2022-09-12T14:06:01.581Z,97185.31
2022-09-12T14:08:48.386Z,97191.38
2022-09-12T14:12:27.345Z,97182.41
2022-09-12T14:15:38.819Z,97182.09
2022-09-12T14:18:45.397Z,97179.41
2022-09-12T14:21:36.607Z,97173.25
2022-09-12T14:24:26.415Z,97182.94
2022-09-12T14:27:12.644Z,97175.13
2022-09-12T14:30:09.480Z,97175.44
2022-09-12T14:33:18.962Z,97175.44
2022-09-12T14:36:43.573Z,97175.31
2022-09-12T15:30:54.257Z,97149.59
2022-09-12T15:34:09.522Z,97146.09
2022-09-12T15:36:55.275Z,97151.47
2022-09-12T15:40:13.379Z,97146.91
2022-09-12T15:43:05.295Z,97147.50
2022-09-12T15:45:51.787Z,97144.00
2022-09-12T15:48:40.134Z,97144.59
2022-09-12T15:51:25.679Z,97140.63
2022-09-12T15:54:21.669Z,97141.50
2022-09-12T15:57:08.051Z,97143.72
2022-09-12T15:59:59.739Z,97144.28
2022-09-12T16:02:47.025Z,97139.81
2022-09-12T16:05:33.067Z,97140.72
2022-09-12T16:08:18.484Z,97147.78
2022-09-12T16:11:24.880Z,97139.22
2022-09-12T16:14:13.373Z,97138.97
2022-09-12T16:16:59.267Z,97137.97
2022-09-12T16:19:44.846Z,97135.56
2022-09-12T16:22:30.579Z,97133.97
2022-09-12T16:25:17.323Z,97129.78
2022-09-12T16:28:06.115Z,97126.56
2022-09-12T16:30:59.579Z,97134.16
2022-09-12T16:34:24.310Z,97126.66
2022-09-12T16:37:09.785Z,97121.19
2022-09-12T16:39:55.823Z,97116.25
2022-09-12T16:42:43.760Z,97119.84
2022-09-12T16:45:48.448Z,97118.03
2022-09-12T16:48:48.057Z,97124.09
2022-09-12T16:51:47.540Z,97122.56
2022-09-12T16:57:27.391Z,97114.81
2022-09-12T17:00:12.734Z,97107.13
2022-09-12T17:02:59.261Z,97111.75
2022-09-12T17:05:44.902Z,97120.69
2022-09-12T17:08:31.017Z,97109.78
2022-09-12T17:11:17.941Z,97109.34
2022-09-12T17:14:07.131Z,97104.91
2022-09-12T17:16:53.511Z,97106.38
2022-09-12T17:19:39.127Z,97104.84
2022-09-12T17:22:24.660Z,97112.22
2022-09-12T17:25:10.581Z,97107.78
2022-09-12T17:27:55.833Z,97111.91
2022-09-12T17:30:41.824Z,97118.19
2022-09-12T17:33:28.867Z,97120.44
2022-09-12T17:36:17.057Z,97111.06
2022-09-12T17:39:04.002Z,97110.63
2022-09-12T17:41:52.047Z,97109.34
2022-09-12T17:44:38.070Z,97113.88
2022-09-12T17:47:23.428Z,97118.53
2022-09-12T17:50:30.912Z,97119.13
2022-09-12T17:53:16.168Z,97114.28
2022-09-12T17:56:05.662Z,97118.34
2022-09-12T17:58:51.231Z,97123.75
2022-09-12T18:01:55.126Z,97125.66
2022-09-12T18:04:41.533Z,97120.94
2022-09-12T18:07:26.867Z,97124.44
2022-09-12T18:10:12.665Z,97119.66
2022-09-12T18:12:58.805Z,97115.94
2022-09-12T18:15:44.420Z,97130.47
2022-09-12T18:18:29.913Z,97124.91
2022-09-12T18:21:15.555Z,97127.34
2022-09-12T18:24:01.415Z,97126.06
2022-09-12T18:26:47.018Z,97119.91
2022-09-12T18:29:32.315Z,97118.59
2022-09-12T18:32:18.105Z,97119.94
2022-09-12T18:35:03.585Z,97129.06
2022-09-12T18:37:49.351Z,97126.13
2022-09-12T18:40:34.599Z,97125.34
2022-09-12T18:43:20.086Z,97128.59
2022-09-12T18:46:12.231Z,97122.72
2022-09-12T18:48:59.045Z,97128.13
2022-09-12T18:51:44.548Z,97128.94
2022-09-12T18:54:30.066Z,97131.63
2022-09-12T18:57:15.453Z,97132.44
2022-09-12T19:00:03.261Z,97132.72
2022-09-12T19:02:49.144Z,97136.22
2022-09-12T19:05:35.531Z,97126.03
2022-09-12T19:08:20.834Z,97127.66
2022-09-12T19:11:07.929Z,97132.47
2022-09-12T19:13:54.481Z,97128.75
2022-09-12T19:16:40.056Z,97132.75
2022-09-12T19:19:25.361Z,97127.94
2022-09-12T19:22:10.856Z,97128.75
2022-09-12T19:24:56.211Z,97129.03
2022-09-12T19:27:41.732Z,97123.44
2022-09-12T19:30:27.202Z,97128.78
2022-09-12T19:33:12.891Z,97126.09
2022-09-12T19:36:03.264Z,97128.78
2022-09-12T19:38:49.007Z,97134.63
2022-09-12T19:41:35.073Z,97125.53
2022-09-12T19:44:20.460Z,97126.84
2022-09-12T19:47:06.128Z,97120.16
2022-09-12T19:49:52.508Z,97123.59
2022-09-12T19:52:37.975Z,97129.19
2022-09-12T19:55:23.647Z,97125.16
2022-09-12T19:58:09.194Z,97121.69
2022-09-12T20:00:56.037Z,97119.53
2022-09-12T20:03:42.649Z,97115.25
2022-09-12T20:06:28.826Z,97118.69
2022-09-12T20:09:14.309Z,97115.44
2022-09-12T20:11:59.693Z,97116.50
2022-09-12T20:14:45.020Z,97108.44
2022-09-12T20:17:31.432Z,97106.53
2022-09-12T20:20:16.989Z,97105.97
2022-09-12T20:23:02.934Z,97109.66
2022-09-12T20:25:48.855Z,97109.66
2022-09-12T20:28:38.615Z,97111.47
2022-09-12T20:31:24.291Z,97112.78
2022-09-12T20:34:18.707Z,97114.34
2022-09-12T20:37:04.045Z,97113.53
2022-09-12T20:39:50.974Z,97112.94
2022-09-12T20:42:36.733Z,97109.44
2022-09-12T20:45:22.703Z,97104.03
2022-09-12T20:48:07.949Z,97100.00
2022-09-12T20:50:53.576Z,97100.19
2022-09-12T20:53:39.168Z,97099.59
2022-09-12T20:56:26.698Z,97097.97
2022-09-12T20:59:12.774Z,97093.41
2022-09-12T21:01:58.625Z,97094.41
2022-09-12T21:04:44.377Z,97097.84
2022-09-12T21:07:30.830Z,97095.41
2022-09-12T21:10:16.046Z,97098.59
2022-09-12T21:13:01.718Z,97095.66
2022-09-12T21:15:47.020Z,97093.47
2022-09-12T21:18:34.526Z,97094.25
2022-09-12T21:21:19.876Z,97089.69
2022-09-12T21:24:05.763Z,97095.75
2022-09-12T21:29:40.053Z,97093.22
2022-09-12T21:32:25.749Z,97096.91
2022-09-12T21:35:11.194Z,97107.50
2022-09-12T21:37:57.298Z,97103.16
2022-09-12T21:40:42.869Z,97104.97
2022-09-12T21:43:28.515Z,97099.84
2022-09-12T21:46:14.071Z,97105.66
2022-09-12T21:48:59.534Z,97099.47
2022-09-12T21:51:44.965Z,97105.53
2022-09-12T21:54:30.352Z,97096.69
2022-09-12T21:57:15.887Z,97090.78
2022-09-12T22:00:01.626Z,97092.53
2022-09-12T22:02:47.945Z,97090.84
2022-09-12T22:05:34.380Z,97085.97
2022-09-12T22:08:19.870Z,97080.25
2022-09-12T22:11:10.776Z,97078.91
2022-09-12T22:13:56.646Z,97086.31
2022-09-12T22:16:41.949Z,97087.28
2022-09-12T22:19:27.451Z,97084.31
2022-09-12T22:22:31.558Z,97085.53
2022-09-12T22:25:17.083Z,97089.97
2022-09-12T22:28:02.858Z,97083.78
2022-09-12T22:30:51.039Z,97081.88
2022-09-12T22:33:36.484Z,97086.84
2022-09-12T22:36:21.814Z,97080.91
2022-09-12T22:39:07.730Z,97081.94
2022-09-12T22:41:53.240Z,97081.16
2022-09-12T22:44:38.608Z,97080.13
2022-09-12T22:47:24.123Z,97080.91
2022-09-12T22:50:09.575Z,97069.50
2022-09-12T22:52:55.140Z,97069.72
2022-09-12T22:55:43.774Z,97074.94
2022-09-12T22:58:29.623Z,97066.41
2022-09-12T23:01:15.238Z,97066.91
2022-09-12T23:04:01.573Z,97058.28
2022-09-12T23:06:47.653Z,97057.91
2022-09-12T23:09:35.392Z,97051.44
2022-09-12T23:12:21.164Z,97057.25
2022-09-12T23:15:07.065Z,97054.84
2022-09-12T23:17:52.300Z,97046.56
2022-09-12T23:20:37.809Z,97046.78
2022-09-12T23:23:23.096Z,97049.69
2022-09-12T23:26:12.633Z,97053.38
2022-09-12T23:29:01.222Z,97056.28
2022-09-12T23:31:47.297Z,97051.47
2022-09-12T23:34:33.545Z,97048.47
2022-09-12T23:37:21.782Z,97039.63
2022-09-12T23:40:08.297Z,97043.56
2022-09-12T23:42:53.442Z,97046.47
2022-09-12T23:45:38.649Z,97044.03
2022-09-12T23:48:24.309Z,97036.56
2022-09-12T23:51:11.162Z,97029.06
2022-09-12T23:53:57.015Z,97032.22
2022-09-12T23:56:42.698Z,97020.22
2022-09-12T23:59:28.183Z,97008.00
